sensor_id;sensor_type;location;lat;lon;timestamp;P1;durP1;ratioP1;P2;durP2;ratioP2
69334;SDS011;56477;52.742;15.242;2023-02-22T00:01:30;21.47;;;3.97;;
69334;SDS011;56477;52.742;15.242;2023-02-22T00:04:04;13.80;;;2.47;;
69334;SDS011;56477;52.742;15.242;2023-02-22T00:06:31;17.88;;;2.67;;
69334;SDS011;56477;52.742;15.242;2023-02-22T00:08:58;20.42;;;3.63;;
69334;SDS011;56477;52.742;15.242;2023-02-22T00:11:24;20.90;;;3.30;;
69334;SDS011;56477;52.742;15.242;2023-02-22T00:13:51;20.77;;;2.67;;
69334;SDS011;56477;52.742;15.242;2023-02-22T00:16:18;15.52;;;2.80;;
69334;SDS011;56477;52.742;15.242;2023-02-22T00:18:46;23.65;;;2.92;;
69334;SDS011;56477;52.742;15.242;2023-02-22T00:21:13;20.02;;;3.17;;
69334;SDS011;56477;52.742;15.242;2023-02-22T00:23:42;20.98;;;3.17;;
69334;SDS011;56477;52.742;15.242;2023-02-22T00:26:14;21.97;;;3.43;;
69334;SDS011;56477;52.742;15.242;2023-02-22T00:28:45;18.58;;;3.33;;
69334;SDS011;56477;52.742;15.242;2023-02-22T00:31:12;20.15;;;3.15;;
69334;SDS011;56477;52.742;15.242;2023-02-22T00:33:39;27.45;;;3.70;;
69334;SDS011;56477;52.742;15.242;2023-02-22T00:36:07;16.02;;;2.97;;
69334;SDS011;56477;52.742;15.242;2023-02-22T00:38:35;15.43;;;2.90;;
69334;SDS011;56477;52.742;15.242;2023-02-22T00:41:01;20.83;;;3.30;;
69334;SDS011;56477;52.742;15.242;2023-02-22T00:43:28;21.13;;;3.58;;
69334;SDS011;56477;52.742;15.242;2023-02-22T00:45:53;13.50;;;2.95;;
69334;SDS011;56477;52.742;15.242;2023-02-22T00:48:21;16.90;;;2.67;;
69334;SDS011;56477;52.742;15.242;2023-02-22T00:50:47;16.47;;;3.07;;
69334;SDS011;56477;52.742;15.242;2023-02-22T00:53:14;19.85;;;3.65;;
69334;SDS011;56477;52.742;15.242;2023-02-22T00:55:40;19.30;;;2.83;;
69334;SDS011;56477;52.742;15.242;2023-02-22T00:58:07;21.55;;;3.47;;
69334;SDS011;56477;52.742;15.242;2023-02-22T01:00:37;24.53;;;3.70;;
69334;SDS011;56477;52.742;15.242;2023-02-22T01:03:05;19.77;;;3.55;;
69334;SDS011;56477;52.742;15.242;2023-02-22T01:05:32;23.80;;;3.60;;
69334;SDS011;56477;52.742;15.242;2023-02-22T01:07:59;23.30;;;3.17;;
69334;SDS011;56477;52.742;15.242;2023-02-22T01:10:27;19.20;;;3.33;;
69334;SDS011;56477;52.742;15.242;2023-02-22T01:12:55;22.33;;;3.07;;
69334;SDS011;56477;52.742;15.242;2023-02-22T01:15:23;17.05;;;2.95;;
69334;SDS011;56477;52.742;15.242;2023-02-22T01:17:52;23.55;;;3.58;;
69334;SDS011;56477;52.742;15.242;2023-02-22T01:20:18;20.15;;;3.92;;
69334;SDS011;56477;52.742;15.242;2023-02-22T01:22:51;20.10;;;3.80;;
69334;SDS011;56477;52.742;15.242;2023-02-22T01:25:20;24.97;;;3.83;;
69334;SDS011;56477;52.742;15.242;2023-02-22T01:27:48;19.70;;;4.25;;
69334;SDS011;56477;52.742;15.242;2023-02-22T01:30:15;24.98;;;4.68;;
69334;SDS011;56477;52.742;15.242;2023-02-22T01:32:43;21.75;;;4.25;;
69334;SDS011;56477;52.742;15.242;2023-02-22T01:35:11;25.85;;;4.03;;
69334;SDS011;56477;52.742;15.242;2023-02-22T01:37:40;24.93;;;4.60;;
69334;SDS011;56477;52.742;15.242;2023-02-22T01:40:07;17.90;;;3.22;;
69334;SDS011;56477;52.742;15.242;2023-02-22T01:42:35;20.08;;;4.65;;
69334;SDS011;56477;52.742;15.242;2023-02-22T01:47:56;24.60;;;4.00;;
69334;SDS011;56477;52.742;15.242;2023-02-22T01:50:22;26.73;;;4.20;;
69334;SDS011;56477;52.742;15.242;2023-02-22T01:52:49;20.08;;;3.55;;
69334;SDS011;56477;52.742;15.242;2023-02-22T01:55:15;19.42;;;3.50;;
69334;SDS011;56477;52.742;15.242;2023-02-22T01:57:43;22.02;;;4.43;;
69334;SDS011;56477;52.742;15.242;2023-02-22T02:00:10;23.88;;;4.80;;
69334;SDS011;56477;52.742;15.242;2023-02-22T02:02:42;21.67;;;5.03;;
69334;SDS011;56477;52.742;15.242;2023-02-22T02:05:10;24.15;;;4.38;;
69334;SDS011;56477;52.742;15.242;2023-02-22T02:07:37;22.50;;;4.55;;
69334;SDS011;56477;52.742;15.242;2023-02-22T02:10:07;17.08;;;4.75;;
69334;SDS011;56477;52.742;15.242;2023-02-22T02:12:39;22.33;;;3.72;;
69334;SDS011;56477;52.742;15.242;2023-02-22T02:15:15;22.07;;;3.63;;
69334;SDS011;56477;52.742;15.242;2023-02-22T02:17:41;20.90;;;4.15;;
69334;SDS011;56477;52.742;15.242;2023-02-22T02:20:44;31.35;;;6.40;;
69334;SDS011;56477;52.742;15.242;2023-02-22T02:23:07;21.13;;;4.15;;
69334;SDS011;56477;52.742;15.242;2023-02-22T02:37:37;23.63;;;4.18;;
69334;SDS011;56477;52.742;15.242;2023-02-22T02:40:11;19.38;;;3.28;;
69334;SDS011;56477;52.742;15.242;2023-02-22T02:42:46;24.97;;;3.67;;
69334;SDS011;56477;52.742;15.242;2023-02-22T02:45:24;28.50;;;4.75;;
69334;SDS011;56477;52.742;15.242;2023-02-22T02:47:57;22.08;;;3.80;;
69334;SDS011;56477;52.742;15.242;2023-02-22T02:50:31;18.92;;;3.63;;
69334;SDS011;56477;52.742;15.242;2023-02-22T02:53:01;16.60;;;3.13;;
69334;SDS011;56477;52.742;15.242;2023-02-22T02:55:30;20.20;;;2.87;;
69334;SDS011;56477;52.742;15.242;2023-02-22T02:57:57;20.95;;;3.47;;
69334;SDS011;56477;52.742;15.242;2023-02-22T03:00:25;19.83;;;3.08;;
69334;SDS011;56477;52.742;15.242;2023-02-22T03:11:09;21.77;;;4.00;;
69334;SDS011;56477;52.742;15.242;2023-02-22T03:16:50;25.73;;;3.22;;
69334;SDS011;56477;52.742;15.242;2023-02-22T03:27:25;21.05;;;3.97;;
69334;SDS011;56477;52.742;15.242;2023-02-22T03:29:58;15.55;;;3.20;;
69334;SDS011;56477;52.742;15.242;2023-02-22T03:32:29;23.75;;;5.18;;
69334;SDS011;56477;52.742;15.242;2023-02-22T03:35:07;24.47;;;5.70;;
69334;SDS011;56477;52.742;15.242;2023-02-22T03:37:41;25.65;;;5.45;;
69334;SDS011;56477;52.742;15.242;2023-02-22T03:40:13;24.73;;;6.13;;
69334;SDS011;56477;52.742;15.242;2023-02-22T03:42:43;21.13;;;4.45;;
69334;SDS011;56477;52.742;15.242;2023-02-22T03:45:13;31.00;;;5.88;;
69334;SDS011;56477;52.742;15.242;2023-02-22T03:47:46;26.97;;;5.30;;
69334;SDS011;56477;52.742;15.242;2023-02-22T03:52:42;24.05;;;4.30;;
69334;SDS011;56477;52.742;15.242;2023-02-22T03:55:10;21.48;;;4.05;;
69334;SDS011;56477;52.742;15.242;2023-02-22T03:57:38;26.88;;;4.07;;
69334;SDS011;56477;52.742;15.242;2023-02-22T04:00:09;18.67;;;3.80;;
69334;SDS011;56477;52.742;15.242;2023-02-22T04:02:38;24.23;;;4.00;;
69334;SDS011;56477;52.742;15.242;2023-02-22T04:05:04;21.30;;;4.45;;
69334;SDS011;56477;52.742;15.242;2023-02-22T04:07:31;24.38;;;3.35;;
69334;SDS011;56477;52.742;15.242;2023-02-22T04:09:57;24.07;;;3.10;;
69334;SDS011;56477;52.742;15.242;2023-02-22T04:12:23;17.27;;;3.53;;
69334;SDS011;56477;52.742;15.242;2023-02-22T04:14:49;18.95;;;3.50;;
69334;SDS011;56477;52.742;15.242;2023-02-22T04:17:15;15.02;;;3.10;;
69334;SDS011;56477;52.742;15.242;2023-02-22T04:19:41;18.80;;;3.60;;
69334;SDS011;56477;52.742;15.242;2023-02-22T04:22:09;20.55;;;4.00;;
69334;SDS011;56477;52.742;15.242;2023-02-22T04:24:36;25.90;;;4.28;;
69334;SDS011;56477;52.742;15.242;2023-02-22T04:27:02;18.02;;;3.47;;
69334;SDS011;56477;52.742;15.242;2023-02-22T04:29:28;24.63;;;5.10;;
69334;SDS011;56477;52.742;15.242;2023-02-22T04:31:54;25.92;;;5.43;;
69334;SDS011;56477;52.742;15.242;2023-02-22T04:34:20;17.90;;;4.03;;
69334;SDS011;56477;52.742;15.242;2023-02-22T04:36:46;27.83;;;3.97;;
69334;SDS011;56477;52.742;15.242;2023-02-22T04:39:12;22.10;;;4.40;;
69334;SDS011;56477;52.742;15.242;2023-02-22T04:41:38;20.90;;;4.88;;
69334;SDS011;56477;52.742;15.242;2023-02-22T04:44:04;25.95;;;6.13;;
69334;SDS011;56477;52.742;15.242;2023-02-22T04:46:30;24.63;;;5.63;;
69334;SDS011;56477;52.742;15.242;2023-02-22T04:48:56;24.73;;;5.73;;
69334;SDS011;56477;52.742;15.242;2023-02-22T04:51:22;29.63;;;6.63;;
69334;SDS011;56477;52.742;15.242;2023-02-22T04:53:49;30.85;;;7.85;;
69334;SDS011;56477;52.742;15.242;2023-02-22T04:56:18;24.02;;;7.15;;
69334;SDS011;56477;52.742;15.242;2023-02-22T04:58:44;29.13;;;7.40;;
69334;SDS011;56477;52.742;15.242;2023-02-22T05:01:10;26.20;;;6.80;;
69334;SDS011;56477;52.742;15.242;2023-02-22T05:03:36;25.33;;;6.38;;
69334;SDS011;56477;52.742;15.242;2023-02-22T05:06:03;30.58;;;6.15;;
69334;SDS011;56477;52.742;15.242;2023-02-22T05:08:29;24.37;;;6.50;;
69334;SDS011;56477;52.742;15.242;2023-02-22T05:10:55;27.40;;;5.90;;
69334;SDS011;56477;52.742;15.242;2023-02-22T05:13:21;27.08;;;5.18;;
69334;SDS011;56477;52.742;15.242;2023-02-22T05:15:47;28.50;;;5.60;;
69334;SDS011;56477;52.742;15.242;2023-02-22T05:18:13;24.55;;;5.50;;
69334;SDS011;56477;52.742;15.242;2023-02-22T05:20:40;28.38;;;5.65;;
69334;SDS011;56477;52.742;15.242;2023-02-22T05:23:06;26.50;;;4.80;;
69334;SDS011;56477;52.742;15.242;2023-02-22T05:25:32;30.40;;;5.60;;
69334;SDS011;56477;52.742;15.242;2023-02-22T05:27:59;32.47;;;5.47;;
69334;SDS011;56477;52.742;15.242;2023-02-22T05:30:33;31.20;;;7.13;;
69334;SDS011;56477;52.742;15.242;2023-02-22T05:33:00;32.55;;;6.32;;
69334;SDS011;56477;52.742;15.242;2023-02-22T05:35:27;20.23;;;6.53;;
69334;SDS011;56477;52.742;15.242;2023-02-22T05:37:53;22.60;;;5.00;;
69334;SDS011;56477;52.742;15.242;2023-02-22T05:40:22;23.58;;;4.15;;
69334;SDS011;56477;52.742;15.242;2023-02-22T05:42:49;30.25;;;5.50;;
69334;SDS011;56477;52.742;15.242;2023-02-22T05:45:16;21.88;;;4.53;;
69334;SDS011;56477;52.742;15.242;2023-02-22T05:47:44;27.38;;;5.97;;
69334;SDS011;56477;52.742;15.242;2023-02-22T05:50:10;21.10;;;5.07;;
69334;SDS011;56477;52.742;15.242;2023-02-22T05:52:37;29.02;;;4.45;;
69334;SDS011;56477;52.742;15.242;2023-02-22T05:55:07;20.27;;;4.55;;
69334;SDS011;56477;52.742;15.242;2023-02-22T05:57:34;27.52;;;5.00;;
69334;SDS011;56477;52.742;15.242;2023-02-22T06:00:01;27.63;;;4.90;;
69334;SDS011;56477;52.742;15.242;2023-02-22T06:02:28;23.67;;;4.13;;
69334;SDS011;56477;52.742;15.242;2023-02-22T06:04:55;25.23;;;4.47;;
69334;SDS011;56477;52.742;15.242;2023-02-22T06:07:20;19.80;;;4.43;;
69334;SDS011;56477;52.742;15.242;2023-02-22T06:09:47;20.38;;;4.38;;
69334;SDS011;56477;52.742;15.242;2023-02-22T06:12:13;28.73;;;4.93;;
69334;SDS011;56477;52.742;15.242;2023-02-22T06:14:39;22.45;;;4.50;;
69334;SDS011;56477;52.742;15.242;2023-02-22T06:17:10;34.97;;;5.95;;
69334;SDS011;56477;52.742;15.242;2023-02-22T06:19:36;25.40;;;5.10;;
69334;SDS011;56477;52.742;15.242;2023-02-22T06:22:03;30.33;;;6.27;;
69334;SDS011;56477;52.742;15.242;2023-02-22T06:24:29;26.23;;;5.25;;
69334;SDS011;56477;52.742;15.242;2023-02-22T06:26:56;25.63;;;5.40;;
69334;SDS011;56477;52.742;15.242;2023-02-22T06:29:23;22.23;;;4.90;;
69334;SDS011;56477;52.742;15.242;2023-02-22T06:31:50;26.98;;;5.53;;
69334;SDS011;56477;52.742;15.242;2023-02-22T06:34:16;29.00;;;5.97;;
69334;SDS011;56477;52.742;15.242;2023-02-22T06:36:43;24.40;;;6.00;;
69334;SDS011;56477;52.742;15.242;2023-02-22T06:39:09;31.42;;;5.93;;
69334;SDS011;56477;52.742;15.242;2023-02-22T06:41:40;31.45;;;6.22;;
69334;SDS011;56477;52.742;15.242;2023-02-22T06:44:07;23.20;;;6.38;;
69334;SDS011;56477;52.742;15.242;2023-02-22T06:46:35;22.77;;;6.50;;
69334;SDS011;56477;52.742;15.242;2023-02-22T06:49:01;21.35;;;4.97;;
69334;SDS011;56477;52.742;15.242;2023-02-22T06:51:27;26.08;;;5.80;;
69334;SDS011;56477;52.742;15.242;2023-02-22T06:53:55;27.38;;;5.93;;
69334;SDS011;56477;52.742;15.242;2023-02-22T06:56:21;32.63;;;6.67;;
69334;SDS011;56477;52.742;15.242;2023-02-22T06:58:48;26.35;;;6.45;;
69334;SDS011;56477;52.742;15.242;2023-02-22T07:01:14;23.48;;;5.90;;
69334;SDS011;56477;52.742;15.242;2023-02-22T07:03:40;32.55;;;6.75;;
69334;SDS011;56477;52.742;15.242;2023-02-22T07:06:06;25.80;;;7.37;;
69334;SDS011;56477;52.742;15.242;2023-02-22T07:08:33;39.20;;;9.25;;
69334;SDS011;56477;52.742;15.242;2023-02-22T07:10:59;29.58;;;8.45;;
69334;SDS011;56477;52.742;15.242;2023-02-22T07:13:25;27.75;;;6.60;;
69334;SDS011;56477;52.742;15.242;2023-02-22T07:15:51;35.60;;;11.10;;
69334;SDS011;56477;52.742;15.242;2023-02-22T07:18:18;29.48;;;9.60;;
69334;SDS011;56477;52.742;15.242;2023-02-22T07:20:43;35.58;;;8.05;;
69334;SDS011;56477;52.742;15.242;2023-02-22T07:23:12;33.58;;;7.00;;
69334;SDS011;56477;52.742;15.242;2023-02-22T07:25:40;35.60;;;7.30;;
69334;SDS011;56477;52.742;15.242;2023-02-22T07:28:07;28.92;;;6.80;;
69334;SDS011;56477;52.742;15.242;2023-02-22T07:30:35;36.15;;;6.60;;
69334;SDS011;56477;52.742;15.242;2023-02-22T07:33:03;22.45;;;4.47;;
69334;SDS011;56477;52.742;15.242;2023-02-22T07:35:32;20.08;;;5.03;;
69334;SDS011;56477;52.742;15.242;2023-02-22T07:38:03;22.77;;;3.97;;
69334;SDS011;56477;52.742;15.242;2023-02-22T07:40:32;23.27;;;4.07;;
69334;SDS011;56477;52.742;15.242;2023-02-22T07:43:00;23.52;;;4.38;;
69334;SDS011;56477;52.742;15.242;2023-02-22T07:45:29;35.40;;;4.47;;
69334;SDS011;56477;52.742;15.242;2023-02-22T07:47:56;19.40;;;4.20;;
69334;SDS011;56477;52.742;15.242;2023-02-22T07:50:23;21.00;;;4.20;;
69334;SDS011;56477;52.742;15.242;2023-02-22T07:52:52;16.38;;;3.53;;
69334;SDS011;56477;52.742;15.242;2023-02-22T07:55:21;15.98;;;4.20;;
69334;SDS011;56477;52.742;15.242;2023-02-22T07:57:49;19.80;;;4.47;;
69334;SDS011;56477;52.742;15.242;2023-02-22T08:00:25;23.25;;;3.80;;
69334;SDS011;56477;52.742;15.242;2023-02-22T08:02:57;25.77;;;4.43;;
69334;SDS011;56477;52.742;15.242;2023-02-22T08:05:25;14.73;;;3.38;;
69334;SDS011;56477;52.742;15.242;2023-02-22T08:07:52;24.83;;;4.63;;
69334;SDS011;56477;52.742;15.242;2023-02-22T08:10:19;19.50;;;3.97;;
69334;SDS011;56477;52.742;15.242;2023-02-22T08:12:48;15.82;;;3.55;;
69334;SDS011;56477;52.742;15.242;2023-02-22T08:15:19;16.37;;;3.93;;
69334;SDS011;56477;52.742;15.242;2023-02-22T08:17:50;25.67;;;4.30;;
69334;SDS011;56477;52.742;15.242;2023-02-22T08:20:16;22.27;;;4.13;;
69334;SDS011;56477;52.742;15.242;2023-02-22T08:22:42;25.73;;;4.90;;
69334;SDS011;56477;52.742;15.242;2023-02-22T08:25:08;18.85;;;4.10;;
69334;SDS011;56477;52.742;15.242;2023-02-22T08:27:35;18.07;;;4.13;;
69334;SDS011;56477;52.742;15.242;2023-02-22T08:30:00;20.55;;;4.68;;
69334;SDS011;56477;52.742;15.242;2023-02-22T08:32:27;16.90;;;4.47;;
69334;SDS011;56477;52.742;15.242;2023-02-22T08:34:52;20.00;;;5.27;;
69334;SDS011;56477;52.742;15.242;2023-02-22T08:37:19;23.73;;;5.07;;
69334;SDS011;56477;52.742;15.242;2023-02-22T08:39:44;25.77;;;4.90;;
69334;SDS011;56477;52.742;15.242;2023-02-22T08:42:11;19.65;;;4.47;;
69334;SDS011;56477;52.742;15.242;2023-02-22T08:44:37;22.63;;;4.40;;
69334;SDS011;56477;52.742;15.242;2023-02-22T08:47:04;19.00;;;4.93;;
69334;SDS011;56477;52.742;15.242;2023-02-22T08:49:31;19.45;;;4.20;;
69334;SDS011;56477;52.742;15.242;2023-02-22T08:51:58;20.92;;;4.53;;
69334;SDS011;56477;52.742;15.242;2023-02-22T08:54:23;21.43;;;4.47;;
69334;SDS011;56477;52.742;15.242;2023-02-22T08:56:50;21.35;;;5.35;;
69334;SDS011;56477;52.742;15.242;2023-02-22T08:59:16;17.65;;;5.45;;
69334;SDS011;56477;52.742;15.242;2023-02-22T09:01:42;18.63;;;5.22;;
69334;SDS011;56477;52.742;15.242;2023-02-22T09:04:08;22.97;;;5.77;;
69334;SDS011;56477;52.742;15.242;2023-02-22T09:06:35;23.23;;;5.65;;
69334;SDS011;56477;52.742;15.242;2023-02-22T09:09:01;19.60;;;5.07;;
69334;SDS011;56477;52.742;15.242;2023-02-22T09:11:27;19.27;;;5.53;;
69334;SDS011;56477;52.742;15.242;2023-02-22T09:13:53;18.13;;;5.20;;
69334;SDS011;56477;52.742;15.242;2023-02-22T09:16:19;20.90;;;5.65;;
69334;SDS011;56477;52.742;15.242;2023-02-22T09:18:45;19.98;;;5.88;;
69334;SDS011;56477;52.742;15.242;2023-02-22T09:21:12;15.23;;;4.20;;
69334;SDS011;56477;52.742;15.242;2023-02-22T09:23:38;17.20;;;4.53;;
69334;SDS011;56477;52.742;15.242;2023-02-22T09:26:06;21.20;;;4.95;;
69334;SDS011;56477;52.742;15.242;2023-02-22T09:28:33;16.27;;;5.85;;
69334;SDS011;56477;52.742;15.242;2023-02-22T09:30:59;22.08;;;6.15;;
69334;SDS011;56477;52.742;15.242;2023-02-22T09:33:25;17.25;;;5.50;;
69334;SDS011;56477;52.742;15.242;2023-02-22T09:35:51;16.33;;;4.97;;
69334;SDS011;56477;52.742;15.242;2023-02-22T09:38:18;19.23;;;5.15;;
69334;SDS011;56477;52.742;15.242;2023-02-22T09:40:51;15.73;;;5.32;;
69334;SDS011;56477;52.742;15.242;2023-02-22T09:46:13;17.85;;;4.22;;
69334;SDS011;56477;52.742;15.242;2023-02-22T09:51:24;20.83;;;3.72;;
69334;SDS011;56477;52.742;15.242;2023-02-22T09:53:54;21.67;;;5.38;;
69334;SDS011;56477;52.742;15.242;2023-02-22T09:56:23;23.92;;;4.68;;
69334;SDS011;56477;52.742;15.242;2023-02-22T09:58:53;19.35;;;4.93;;
69334;SDS011;56477;52.742;15.242;2023-02-22T10:07:19;20.70;;;5.65;;
69334;SDS011;56477;52.742;15.242;2023-02-22T10:09:42;19.55;;;5.57;;
69334;SDS011;56477;52.742;15.242;2023-02-22T10:12:29;16.60;;;5.40;;
69334;SDS011;56477;52.742;15.242;2023-02-22T10:25:49;19.55;;;5.72;;
69334;SDS011;56477;52.742;15.242;2023-02-22T10:28:26;16.87;;;5.50;;
69334;SDS011;56477;52.742;15.242;2023-02-22T10:31:07;15.63;;;5.80;;
69334;SDS011;56477;52.742;15.242;2023-02-22T10:33:41;21.30;;;5.85;;
69334;SDS011;56477;52.742;15.242;2023-02-22T10:36:17;18.25;;;5.25;;
69334;SDS011;56477;52.742;15.242;2023-02-22T10:38:58;20.52;;;5.50;;
69334;SDS011;56477;52.742;15.242;2023-02-22T10:41:31;20.17;;;4.13;;
69334;SDS011;56477;52.742;15.242;2023-02-22T10:44:00;16.67;;;4.25;;
69334;SDS011;56477;52.742;15.242;2023-02-22T10:46:27;18.30;;;4.13;;
69334;SDS011;56477;52.742;15.242;2023-02-22T10:48:55;22.98;;;4.78;;
69334;SDS011;56477;52.742;15.242;2023-02-22T10:51:27;18.75;;;4.38;;
69334;SDS011;56477;52.742;15.242;2023-02-22T10:54:38;20.27;;;4.27;;
69334;SDS011;56477;52.742;15.242;2023-02-22T10:56:52;18.90;;;4.55;;
69334;SDS011;56477;52.742;15.242;2023-02-22T10:59:30;18.20;;;4.55;;
69334;SDS011;56477;52.742;15.242;2023-02-22T11:01:59;15.68;;;4.55;;
69334;SDS011;56477;52.742;15.242;2023-02-22T11:04:26;20.60;;;4.82;;
69334;SDS011;56477;52.742;15.242;2023-02-22T11:07:09;15.40;;;3.87;;
69334;SDS011;56477;52.742;15.242;2023-02-22T11:12:19;18.23;;;4.40;;
69334;SDS011;56477;52.742;15.242;2023-02-22T11:17:51;14.10;;;3.73;;
69334;SDS011;56477;52.742;15.242;2023-02-22T11:20:25;21.88;;;3.85;;
69334;SDS011;56477;52.742;15.242;2023-02-22T11:22:53;16.23;;;3.50;;
69334;SDS011;56477;52.742;15.242;2023-02-22T11:25:24;18.10;;;3.80;;
69334;SDS011;56477;52.742;15.242;2023-02-22T11:28:09;8.52;;;2.90;;
69334;SDS011;56477;52.742;15.242;2023-02-22T11:30:35;17.87;;;3.03;;
69334;SDS011;56477;52.742;15.242;2023-02-22T11:35:37;19.08;;;3.92;;
69334;SDS011;56477;52.742;15.242;2023-02-22T11:41:06;18.95;;;3.60;;
69334;SDS011;56477;52.742;15.242;2023-02-22T11:43:45;15.73;;;3.60;;
69334;SDS011;56477;52.742;15.242;2023-02-22T11:46:15;17.20;;;3.03;;
69334;SDS011;56477;52.742;15.242;2023-02-22T11:54:18;15.90;;;3.80;;
69334;SDS011;56477;52.742;15.242;2023-02-22T12:02:48;12.68;;;3.42;;
69334;SDS011;56477;52.742;15.242;2023-02-22T12:08:47;13.70;;;3.33;;
69334;SDS011;56477;52.742;15.242;2023-02-22T12:12:01;14.53;;;3.13;;
69334;SDS011;56477;52.742;15.242;2023-02-22T12:20:20;15.10;;;3.25;;
69334;SDS011;56477;52.742;15.242;2023-02-22T12:25:40;17.20;;;3.83;;
69334;SDS011;56477;52.742;15.242;2023-02-22T12:28:22;15.75;;;3.25;;
69334;SDS011;56477;52.742;15.242;2023-02-22T12:33:27;15.05;;;3.30;;
69334;SDS011;56477;52.742;15.242;2023-02-22T12:36:03;16.47;;;3.47;;
69334;SDS011;56477;52.742;15.242;2023-02-22T12:38:31;14.40;;;3.15;;
69334;SDS011;56477;52.742;15.242;2023-02-22T12:41:14;15.38;;;4.72;;
69334;SDS011;56477;52.742;15.242;2023-02-22T12:44:02;17.02;;;3.15;;
69334;SDS011;56477;52.742;15.242;2023-02-22T12:46:41;19.92;;;4.18;;
69334;SDS011;56477;52.742;15.242;2023-02-22T12:54:55;12.93;;;2.42;;
69334;SDS011;56477;52.742;15.242;2023-02-22T13:05:35;16.27;;;3.78;;
69334;SDS011;56477;52.742;15.242;2023-02-22T13:16:30;20.43;;;3.07;;
69334;SDS011;56477;52.742;15.242;2023-02-22T13:19:06;19.25;;;3.25;;
69334;SDS011;56477;52.742;15.242;2023-02-22T13:21:48;15.55;;;3.50;;
69334;SDS011;56477;52.742;15.242;2023-02-22T13:27:12;17.92;;;4.30;;
69334;SDS011;56477;52.742;15.242;2023-02-22T13:29:47;14.03;;;3.13;;
69334;SDS011;56477;52.742;15.242;2023-02-22T13:45:55;13.77;;;4.03;;
69334;SDS011;56477;52.742;15.242;2023-02-22T13:54:14;13.10;;;4.63;;
69334;SDS011;56477;52.742;15.242;2023-02-22T13:56:48;16.83;;;4.10;;
69334;SDS011;56477;52.742;15.242;2023-02-22T13:59:23;14.02;;;4.85;;
69334;SDS011;56477;52.742;15.242;2023-02-22T14:01:53;17.92;;;4.18;;
69334;SDS011;56477;52.742;15.242;2023-02-22T14:09:49;16.93;;;4.43;;
69334;SDS011;56477;52.742;15.242;2023-02-22T14:17:45;14.70;;;3.75;;
69334;SDS011;56477;52.742;15.242;2023-02-22T14:22:48;18.43;;;3.97;;
69334;SDS011;56477;52.742;15.242;2023-02-22T14:31:07;12.63;;;4.10;;
69334;SDS011;56477;52.742;15.242;2023-02-22T14:33:55;17.48;;;5.05;;
69334;SDS011;56477;52.742;15.242;2023-02-22T14:39:47;13.82;;;4.35;;
69334;SDS011;56477;52.742;15.242;2023-02-22T14:42:24;15.57;;;4.78;;
69334;SDS011;56477;52.742;15.242;2023-02-22T14:47:42;22.10;;;5.57;;
69334;SDS011;56477;52.742;15.242;2023-02-22T14:55:42;24.55;;;5.15;;
69334;SDS011;56477;52.742;15.242;2023-02-22T14:58:20;15.95;;;4.72;;
69334;SDS011;56477;52.742;15.242;2023-02-22T15:00:50;16.25;;;5.30;;
69334;SDS011;56477;52.742;15.242;2023-02-22T15:03:24;18.43;;;5.33;;
69334;SDS011;56477;52.742;15.242;2023-02-22T15:06:04;13.20;;;4.95;;
69334;SDS011;56477;52.742;15.242;2023-02-22T15:08:44;18.00;;;5.15;;
69334;SDS011;56477;52.742;15.242;2023-02-22T15:11:21;16.77;;;5.18;;
69334;SDS011;56477;52.742;15.242;2023-02-22T15:13:52;15.48;;;5.65;;
69334;SDS011;56477;52.742;15.242;2023-02-22T15:16:20;17.77;;;5.73;;
69334;SDS011;56477;52.742;15.242;2023-02-22T15:18:55;19.48;;;4.90;;
69334;SDS011;56477;52.742;15.242;2023-02-22T15:21:27;17.35;;;5.32;;
69334;SDS011;56477;52.742;15.242;2023-02-22T15:24:00;22.27;;;5.35;;
69334;SDS011;56477;52.742;15.242;2023-02-22T15:26:38;18.88;;;5.55;;
69334;SDS011;56477;52.742;15.242;2023-02-22T15:29:07;17.97;;;5.67;;
69334;SDS011;56477;52.742;15.242;2023-02-22T15:31:41;13.05;;;5.55;;
69334;SDS011;56477;52.742;15.242;2023-02-22T15:36:40;18.92;;;6.60;;
69334;SDS011;56477;52.742;15.242;2023-02-22T15:39:17;21.45;;;5.63;;
69334;SDS011;56477;52.742;15.242;2023-02-22T15:41:45;20.20;;;6.30;;
69334;SDS011;56477;52.742;15.242;2023-02-22T15:44:11;16.98;;;6.45;;
69334;SDS011;56477;52.742;15.242;2023-02-22T15:46:37;16.70;;;6.88;;
69334;SDS011;56477;52.742;15.242;2023-02-22T15:51:37;29.30;;;7.70;;
69334;SDS011;56477;52.742;15.242;2023-02-22T15:54:05;20.55;;;6.80;;
69334;SDS011;56477;52.742;15.242;2023-02-22T15:56:34;17.33;;;6.70;;
69334;SDS011;56477;52.742;15.242;2023-02-22T15:59:06;19.75;;;6.80;;
69334;SDS011;56477;52.742;15.242;2023-02-22T16:01:42;17.20;;;6.57;;
69334;SDS011;56477;52.742;15.242;2023-02-22T16:04:20;21.60;;;6.27;;
69334;SDS011;56477;52.742;15.242;2023-02-22T16:06:48;21.17;;;6.85;;
69334;SDS011;56477;52.742;15.242;2023-02-22T16:09:17;21.65;;;7.80;;
69334;SDS011;56477;52.742;15.242;2023-02-22T16:11:47;18.75;;;7.05;;
69334;SDS011;56477;52.742;15.242;2023-02-22T16:19:54;20.00;;;7.50;;
69334;SDS011;56477;52.742;15.242;2023-02-22T16:22:33;20.83;;;7.97;;
69334;SDS011;56477;52.742;15.242;2023-02-22T16:32:46;26.05;;;9.43;;
69334;SDS011;56477;52.742;15.242;2023-02-22T16:35:14;27.30;;;9.25;;
69334;SDS011;56477;52.742;15.242;2023-02-22T16:40:11;29.47;;;10.20;;
69334;SDS011;56477;52.742;15.242;2023-02-22T16:42:47;27.77;;;9.77;;
69334;SDS011;56477;52.742;15.242;2023-02-22T16:45:15;22.33;;;10.30;;
69334;SDS011;56477;52.742;15.242;2023-02-22T16:47:42;22.30;;;8.30;;
69334;SDS011;56477;52.742;15.242;2023-02-22T16:50:09;23.23;;;8.65;;
69334;SDS011;56477;52.742;15.242;2023-02-22T16:52:39;22.00;;;8.80;;
69334;SDS011;56477;52.742;15.242;2023-02-22T16:55:08;26.65;;;8.43;;
69334;SDS011;56477;52.742;15.242;2023-02-22T16:57:37;23.05;;;9.23;;
69334;SDS011;56477;52.742;15.242;2023-02-22T17:00:05;16.00;;;7.32;;
69334;SDS011;56477;52.742;15.242;2023-02-22T17:02:38;19.98;;;7.30;;
69334;SDS011;56477;52.742;15.242;2023-02-22T17:05:04;25.20;;;9.00;;
69334;SDS011;56477;52.742;15.242;2023-02-22T17:07:32;20.38;;;8.10;;
69334;SDS011;56477;52.742;15.242;2023-02-22T17:09:58;24.35;;;9.43;;
69334;SDS011;56477;52.742;15.242;2023-02-22T17:12:25;22.33;;;7.70;;
69334;SDS011;56477;52.742;15.242;2023-02-22T17:14:53;20.23;;;7.75;;
69334;SDS011;56477;52.742;15.242;2023-02-22T17:17:19;23.23;;;7.83;;
69334;SDS011;56477;52.742;15.242;2023-02-22T17:19:45;20.23;;;7.65;;
69334;SDS011;56477;52.742;15.242;2023-02-22T17:22:18;18.75;;;7.40;;
69334;SDS011;56477;52.742;15.242;2023-02-22T17:24:45;22.35;;;6.80;;
69334;SDS011;56477;52.742;15.242;2023-02-22T17:27:12;18.87;;;7.43;;
69334;SDS011;56477;52.742;15.242;2023-02-22T17:29:38;20.75;;;5.93;;
69334;SDS011;56477;52.742;15.242;2023-02-22T17:32:05;21.45;;;7.20;;
69334;SDS011;56477;52.742;15.242;2023-02-22T17:34:32;17.27;;;6.50;;
69334;SDS011;56477;52.742;15.242;2023-02-22T17:36:58;22.23;;;6.18;;
69334;SDS011;56477;52.742;15.242;2023-02-22T17:39:24;18.93;;;5.70;;
69334;SDS011;56477;52.742;15.242;2023-02-22T17:41:52;22.05;;;6.75;;
69334;SDS011;56477;52.742;15.242;2023-02-22T17:44:25;17.08;;;6.38;;
69334;SDS011;56477;52.742;15.242;2023-02-22T17:46:51;15.65;;;6.50;;